Anahuac, Texas
Current Conditions -  °F | °C
As of 2:50 AM on Friday 19 Dec 2014 (Local Time) from KEFD Reporting Station
Light Rain Light Rain  
Wind Chill: 59°   Ceiling: 500
Heat Index: 59°   Visibility: 3mi
Dew Point: 59°   Wind: 8mph
Humidity: 100%   Direction: 10°N
Pressure: 30.04"   Gusts: NA
Location:  29.77°N, 94.68°W
Report Text: KEFD 190850Z 01007KT 3SM -RA BR OVC005 15/15 A3004
Loading
Personal Weather Stations






























Interactive Weather Map New forecast layout! Learn more

10-Day Weather Forecast

Advertisements
Track Severe Weather on mobile